METAR Data
IDs: Format: Raw Decoded Include TAF

Data at: 0324 UTC 19 Oct 2021

KARG 190256Z AUTO 15006KT 10SM CLR 11/07 A3014 RMK AO2 SLP207 T01110072 53008
KARG 190156Z AUTO 15003KT 10SM CLR 13/07 A3013 RMK AO2 SLP204 T01280072
KARG 190056Z AUTO 14004KT 10SM CLR 14/07 A3012 RMK AO2 SLP201 T01390072
KARG 182356Z AUTO 16006KT 10SM CLR 16/07 A3011 RMK AO2 SLP199 T01610072 10228 20156 56006
KARG 182256Z AUTO 17005KT 10SM CLR 20/06 A3012 RMK AO2 SLP199 T02000061
KARG 182156Z AUTO 19007KT 10SM CLR 22/06 A3013 RMK AO2 SLP202 T02220056
KARG 182056Z AUTO 21003KT 10SM CLR 22/06 A3013 RMK AO2 SLP205 T02220056 56023
KARG 181956Z AUTO 19007KT 10SM CLR 22/05 A3015 RMK AO2 SLP209 T02220050
KARG 181856Z AUTO 21006KT 10SM CLR 22/05 A3017 RMK AO2 SLP217 T02170050
KARG 181756Z AUTO 15008KT 10SM CLR 21/06 A3020 RMK AO2 SLP228 T02110056 10217 20050 58017
KARG 181656Z AUTO 18008KT 10SM CLR 21/07 A3023 RMK AO2 SLP238 T02060067
KARG 181556Z AUTO 20005KT 10SM CLR 18/09 A3025 RMK AO2 SLP245 T01830089
KARG 181456Z AUTO 00000KT 10SM CLR 14/09 A3025 RMK AO2 SLP246 T01440094 51012
KARG 181356Z AUTO 00000KT 10SM CLR 10/09 A3025 RMK AO2 SLP244 T01000089
KARG 181256Z AUTO 00000KT 10SM CLR 07/07 A3023 RMK AO2 SLP239 T00670067
KARG 181156Z AUTO 00000KT 10SM CLR 07/06 A3022 RMK AO2 SLP235 T00670056 10094 20061 53009
KARG 181056Z AUTO 00000KT 10SM CLR 07/07 A3021 RMK AO2 SLP229 T00720072
KARG 180956Z AUTO 00000KT 10SM CLR 07/06 A3019 RMK AO2 SLP225 T00670061
KARG 180856Z AUTO 00000KT 10SM CLR 07/06 A3019 RMK AO2 SLP224 T00670061 58007
KARG 180756Z AUTO 00000KT 10SM CLR 08/06 A3020 RMK AO2 SLP227 T00830061
KARG 180656Z AUTO 00000KT 10SM CLR 08/07 A3021 RMK AO2 SLP230 T00830067
KARG 180556Z AUTO 00000KT 10SM CLR 09/06 A3021 RMK AO2 SLP232 T00940056 10156 20089 402220044 58004
KARG 180456Z AUTO 18003KT 10SM CLR 09/06 A3022 RMK AO2 SLP234 T00890061
KARG 180356Z AUTO 00000KT 10SM CLR 11/07 A3022 RMK AO2 SLP235 T01110067
KARG 180256Z AUTO 15003KT 10SM CLR 11/07 A3023 RMK AO2 SLP237 T01110067 51007
KARG 180156Z AUTO 14004KT 10SM CLR 13/07 A3022 RMK AO2 SLP235 T01280067
KARG 180056Z AUTO 12003KT 10SM CLR 13/07 A3021 RMK AO2 SLP233 T01280072
KARG 172356Z AUTO 00000KT 9SM CLR 16/05 A3020 RMK AO2 SLP230 T01610050 10222 20161 55005
KARG 172256Z AUTO 32003KT 10SM CLR 21/03 A3020 RMK AO2 SLP228 T02060033
KARG 172156Z AUTO 00000KT 10SM CLR 22/03 A3021 RMK AO2 SLP231 T02170028
KARG 172056Z AUTO 22003KT 10SM CLR 22/02 A3022 RMK AO2 SLP233 T02170022 56023
KARG 171956Z AUTO 32006KT 10SM CLR 22/03 A3023 RMK AO2 SLP238 T02170033
KARG 171856Z AUTO 27004KT 10SM CLR 21/02 A3026 RMK AO2 SLP246 T02060017
KARG 171756Z AUTO VRB03KT 10SM CLR 20/03 A3029 RMK AO2 SLP256 T02000028 10206 20044 58014
KARG 171656Z AUTO VRB03KT 10SM CLR 19/04 A3031 RMK AO2 SLP266 T01890044
KARG 171556Z AUTO 34004KT 10SM CLR 16/07 A3032 RMK AO2 SLP269 T01610072